createdAt,value
2023-12-04T00:01:18.330Z,13.90
2023-12-04T00:03:45.878Z,15.05
2023-12-04T00:08:40.548Z,13.65
2023-12-04T00:11:08.098Z,13.52
2023-12-04T00:13:35.856Z,14.52
2023-12-04T00:16:03.631Z,13.93
2023-12-04T00:18:31.214Z,12.88
2023-12-04T00:20:58.445Z,15.90
2023-12-04T00:23:25.745Z,12.48
2023-12-04T00:25:52.999Z,14.90
2023-12-04T00:28:20.114Z,13.52
2023-12-04T00:30:47.818Z,13.60
2023-12-04T00:35:41.944Z,12.85
2023-12-04T00:38:08.987Z,12.32
2023-12-04T00:40:36.061Z,13.25
2023-12-04T00:43:03.303Z,13.60
2023-12-04T00:45:30.576Z,12.98
2023-12-04T00:47:58.651Z,13.15
2023-12-04T00:50:25.751Z,15.27
2023-12-04T00:52:52.944Z,14.38
2023-12-04T00:55:20.354Z,13.18
2023-12-04T00:57:47.584Z,13.13
2023-12-04T01:00:15.408Z,15.23
2023-12-04T01:05:09.605Z,13.43
2023-12-04T01:07:36.750Z,17.25
2023-12-04T01:10:05.038Z,15.95
2023-12-04T01:12:32.231Z,15.07
2023-12-04T01:14:59.594Z,16.23
2023-12-04T01:17:26.961Z,16.65
2023-12-04T01:19:54.686Z,16.52
2023-12-04T01:22:21.868Z,16.25
2023-12-04T01:24:49.073Z,16.17
2023-12-04T01:27:16.249Z,13.73
2023-12-04T01:29:43.677Z,13.88
2023-12-04T01:32:10.751Z,14.32
2023-12-04T01:34:37.902Z,15.57
2023-12-04T01:37:05.107Z,15.70
2023-12-04T01:39:32.277Z,16.05
2023-12-04T01:41:59.384Z,15.13
2023-12-04T01:44:26.578Z,16.63
2023-12-04T01:46:53.971Z,13.32
2023-12-04T01:49:21.206Z,15.18
2023-12-04T01:51:48.823Z,13.80
2023-12-04T01:54:17.227Z,14.25
2023-12-04T01:56:45.139Z,14.05
2023-12-04T01:59:12.265Z,12.77
2023-12-04T02:01:41.303Z,12.52
2023-12-04T02:04:08.838Z,13.70
2023-12-04T02:06:36.180Z,14.23
2023-12-04T02:09:03.673Z,13.90
2023-12-04T02:13:57.973Z,14.38
2023-12-04T02:16:28.119Z,13.27
2023-12-04T02:18:55.360Z,15.88
2023-12-04T02:21:22.525Z,15.90
2023-12-04T02:23:53.901Z,13.88
2023-12-04T02:26:29.290Z,13.88
2023-12-04T02:29:00.547Z,13.75
2023-12-04T02:31:30.571Z,16.70
2023-12-04T02:34:00.474Z,15.68
2023-12-04T02:36:29.842Z,13.27
2023-12-04T02:38:57.537Z,14.70
2023-12-04T02:41:25.765Z,15.45
2023-12-04T02:43:52.859Z,16.52
2023-12-04T02:46:20.158Z,11.88
2023-12-04T02:48:47.498Z,15.82
2023-12-04T02:51:14.687Z,16.20
2023-12-04T02:53:41.743Z,16.63
2023-12-04T02:56:09.366Z,11.80
2023-12-04T03:01:03.558Z,13.00
2023-12-04T03:03:30.875Z,17.13
2023-12-04T03:05:58.110Z,14.32
2023-12-04T03:08:25.237Z,17.58
2023-12-04T03:10:52.310Z,15.40
2023-12-04T03:13:19.484Z,15.52
2023-12-04T03:15:46.644Z,16.13
2023-12-04T03:18:13.789Z,16.17
2023-12-04T03:20:40.975Z,16.70
2023-12-04T03:23:08.043Z,18.75
2023-12-04T03:25:35.179Z,12.25
2023-12-04T03:28:02.383Z,15.82
2023-12-04T03:30:29.544Z,14.95
2023-12-04T03:32:56.700Z,17.10
2023-12-04T03:35:23.808Z,17.55
2023-12-04T03:37:50.922Z,18.00
2023-12-04T03:40:18.219Z,15.50
2023-12-04T03:42:45.494Z,16.83
2023-12-04T03:45:12.610Z,17.58
2023-12-04T03:47:39.699Z,14.93
2023-12-04T03:50:07.160Z,16.83
2023-12-04T03:52:34.233Z,17.55
2023-12-04T03:55:01.489Z,16.08
2023-12-04T03:57:28.732Z,18.33
2023-12-04T03:59:55.821Z,17.35
2023-12-04T04:02:22.920Z,17.75
2023-12-04T04:04:50.069Z,17.20
2023-12-04T04:07:18.476Z,15.48
2023-12-04T04:09:45.726Z,16.65
2023-12-04T04:12:12.803Z,18.45
2023-12-04T04:14:40.089Z,18.70
2023-12-04T04:17:07.148Z,18.20
2023-12-04T04:19:34.634Z,19.08
2023-12-04T04:22:01.773Z,17.10
2023-12-04T04:24:29.566Z,18.67
2023-12-04T04:26:56.618Z,18.27
2023-12-04T04:29:23.662Z,18.55
2023-12-04T04:31:50.750Z,17.55
2023-12-04T04:34:17.870Z,16.65
2023-12-04T04:36:45.372Z,17.88
2023-12-04T04:39:15.610Z,17.35
2023-12-04T04:41:42.703Z,15.80
2023-12-04T04:44:09.861Z,18.98
2023-12-04T04:46:36.933Z,16.73
2023-12-04T04:49:07.601Z,20.35
2023-12-04T04:51:35.661Z,17.13
2023-12-04T04:54:03.321Z,19.35
2023-12-04T04:56:30.996Z,19.48
2023-12-04T04:58:58.330Z,18.85
2023-12-04T05:01:25.381Z,18.05
2023-12-04T05:03:52.766Z,17.92
2023-12-04T05:06:19.967Z,18.52
2023-12-04T05:08:47.189Z,19.08
2023-12-04T05:11:15.997Z,19.67
2023-12-04T05:13:43.621Z,17.92
2023-12-04T05:18:39.824Z,19.27
2023-12-04T05:21:10.835Z,18.05
2023-12-04T05:23:38.723Z,19.60
2023-12-04T05:26:07.319Z,20.33
2023-12-04T05:28:35.300Z,18.33
2023-12-04T05:31:02.508Z,18.10
2023-12-04T05:33:29.964Z,19.42
2023-12-04T05:35:57.287Z,17.33
2023-12-04T05:38:24.817Z,19.27
2023-12-04T05:40:51.938Z,19.42
2023-12-04T05:43:20.141Z,15.88
2023-12-04T05:45:48.535Z,16.55
2023-12-04T05:48:16.797Z,18.08
2023-12-04T05:50:43.925Z,13.70
2023-12-04T05:53:12.429Z,17.55
2023-12-04T05:55:39.918Z,17.73
2023-12-04T05:58:07.031Z,17.27
2023-12-04T06:00:34.198Z,15.70
2023-12-04T06:03:01.417Z,14.80
2023-12-04T06:05:28.739Z,14.27
2023-12-04T06:07:56.167Z,13.43
2023-12-04T06:10:23.245Z,14.98
2023-12-04T06:12:50.408Z,13.23
2023-12-04T06:15:17.845Z,13.55
2023-12-04T06:17:44.961Z,12.20
2023-12-04T06:20:12.830Z,13.25
2023-12-04T06:22:40.220Z,14.98
2023-12-04T06:25:08.060Z,12.15
2023-12-04T06:27:35.593Z,13.98
2023-12-04T06:30:03.710Z,11.88
2023-12-04T06:32:31.063Z,13.35
2023-12-04T06:34:58.551Z,10.88
2023-12-04T06:37:25.980Z,12.48
2023-12-04T06:39:55.090Z,10.82
2023-12-04T06:42:22.595Z,11.27
2023-12-04T06:44:49.844Z,12.30
2023-12-04T06:47:19.671Z,10.52
2023-12-04T06:49:46.877Z,10.68
2023-12-04T06:52:14.072Z,10.32
2023-12-04T06:54:41.212Z,12.15
2023-12-04T06:57:09.102Z,10.52
2023-12-04T06:59:36.166Z,11.02
2023-12-04T07:02:03.345Z,9.50
2023-12-04T07:04:30.657Z,10.18
2023-12-04T07:06:59.348Z,11.80
2023-12-04T07:09:26.547Z,10.18
2023-12-04T07:11:53.624Z,11.93
2023-12-04T07:14:21.195Z,10.70
2023-12-04T07:16:48.284Z,10.82
2023-12-04T07:19:17.350Z,9.82
2023-12-04T07:21:44.555Z,12.32
2023-12-04T07:24:11.762Z,10.48
2023-12-04T07:26:39.304Z,7.68
2023-12-04T07:29:06.496Z,11.45
2023-12-04T07:31:33.806Z,9.90
2023-12-04T07:34:03.053Z,9.18
2023-12-04T07:36:30.444Z,10.40
2023-12-04T07:38:57.625Z,10.90
2023-12-04T07:41:24.722Z,8.15
2023-12-04T07:43:52.400Z,10.43
2023-12-04T07:46:19.495Z,8.30
2023-12-04T07:48:47.221Z,9.07
2023-12-04T07:53:41.369Z,9.07
2023-12-04T07:56:09.182Z,9.70
2023-12-04T07:58:36.310Z,9.80
2023-12-04T08:01:03.827Z,8.57
2023-12-04T08:03:31.822Z,10.23
2023-12-04T08:06:02.143Z,7.70
2023-12-04T08:08:29.234Z,9.27
2023-12-04T08:10:57.325Z,8.80
2023-12-04T08:13:24.389Z,9.75
2023-12-04T08:15:51.558Z,7.85
2023-12-04T08:18:18.977Z,9.93
2023-12-04T08:20:46.236Z,10.40
2023-12-04T08:23:13.475Z,9.85
2023-12-04T08:25:40.853Z,9.95
2023-12-04T08:28:10.019Z,9.00
2023-12-04T08:30:37.613Z,8.60
2023-12-04T08:33:05.058Z,9.40
2023-12-04T08:35:32.311Z,9.20
2023-12-04T08:37:59.587Z,7.95
2023-12-04T08:40:26.831Z,7.97
2023-12-04T08:42:54.258Z,8.82
2023-12-04T08:45:21.825Z,7.97
2023-12-04T08:47:50.120Z,9.82
2023-12-04T08:50:17.825Z,9.40
2023-12-04T08:55:13.745Z,8.45
2023-12-04T08:57:41.056Z,8.23
2023-12-04T09:00:09.676Z,9.40
2023-12-04T09:02:41.278Z,9.27
2023-12-04T09:05:13.917Z,8.93
2023-12-04T09:13:15.942Z,8.10
2023-12-04T09:15:43.035Z,9.27
2023-12-04T09:18:10.425Z,9.07
2023-12-04T09:20:37.909Z,9.27
2023-12-04T09:23:09.129Z,9.63
2023-12-04T09:25:37.525Z,9.00
2023-12-04T09:28:05.090Z,9.23
2023-12-04T09:30:32.575Z,9.63
2023-12-04T09:32:59.838Z,7.88
2023-12-04T09:35:26.991Z,9.68
2023-12-04T09:37:55.214Z,9.50
2023-12-04T09:40:22.328Z,9.10
2023-12-04T09:42:49.709Z,8.80
2023-12-04T09:45:18.582Z,8.23
2023-12-04T09:47:46.924Z,9.27
2023-12-04T09:50:15.536Z,8.73
2023-12-04T09:52:43.706Z,8.15
2023-12-04T09:55:11.032Z,9.45
2023-12-04T09:57:39.627Z,10.00
2023-12-04T10:00:07.716Z,8.88
2023-12-04T10:02:41.783Z,7.53
2023-12-04T10:05:09.893Z,7.82
2023-12-04T10:07:43.178Z,8.90
2023-12-04T10:10:10.385Z,7.95
2023-12-04T10:12:38.311Z,9.52
2023-12-04T10:15:10.604Z,9.07
2023-12-04T10:17:39.959Z,8.68
2023-12-04T10:20:18.591Z,7.78
2023-12-04T10:22:57.381Z,7.72
2023-12-04T10:25:26.452Z,8.23
2023-12-04T10:27:55.581Z,8.25
2023-12-04T10:30:31.532Z,8.10
2023-12-04T10:33:02.703Z,8.20
2023-12-04T10:35:33.501Z,8.02
2023-12-04T10:38:01.001Z,8.05
2023-12-04T10:40:29.186Z,8.70
2023-12-04T10:43:22.386Z,10.15
2023-12-04T10:45:51.206Z,9.45
2023-12-04T10:48:20.240Z,7.93
2023-12-04T10:50:49.485Z,8.13
2023-12-04T10:53:18.107Z,9.15
2023-12-04T10:55:46.035Z,7.72
2023-12-04T10:58:15.932Z,9.27
2023-12-04T11:00:50.243Z,8.93
2023-12-04T11:03:29.858Z,9.32
2023-12-04T11:06:01.473Z,9.23
2023-12-04T11:08:34.614Z,8.93
2023-12-04T11:11:10.365Z,8.80
2023-12-04T11:13:49.338Z,7.85
2023-12-04T11:16:36.271Z,7.93
2023-12-04T11:19:29.037Z,7.28
2023-12-04T11:21:59.321Z,8.18
2023-12-04T11:24:26.532Z,7.40
2023-12-04T11:26:55.329Z,8.48
2023-12-04T11:29:23.384Z,8.25
2023-12-04T11:31:50.446Z,7.10
2023-12-04T11:34:17.667Z,7.75
2023-12-04T11:36:46.064Z,8.00
2023-12-04T11:39:13.610Z,8.23
2023-12-04T11:41:44.602Z,8.00
2023-12-04T11:44:17.363Z,7.18
2023-12-04T11:46:58.297Z,8.35
2023-12-04T11:49:30.996Z,8.75
2023-12-04T11:52:02.873Z,8.27
2023-12-04T11:54:30.341Z,7.70
2023-12-04T11:57:00.545Z,7.47
2023-12-04T11:59:28.308Z,8.10
2023-12-04T12:04:24.651Z,8.23
2023-12-04T12:06:52.121Z,8.57
2023-12-04T12:09:20.134Z,7.35
2023-12-04T12:11:47.428Z,8.43
2023-12-04T12:14:14.502Z,8.45
2023-12-04T12:16:42.624Z,7.88
2023-12-04T12:19:09.771Z,7.50
2023-12-04T12:21:37.132Z,7.78
2023-12-04T12:24:07.052Z,7.93
2023-12-04T12:26:34.603Z,8.10
2023-12-04T12:29:01.658Z,7.75
2023-12-04T12:31:29.239Z,8.75
2023-12-04T12:33:57.066Z,7.70
2023-12-04T12:36:24.755Z,9.43
2023-12-04T12:38:51.909Z,7.28
2023-12-04T12:41:19.117Z,8.40
2023-12-04T12:43:46.269Z,8.05
2023-12-04T12:46:13.365Z,8.68
2023-12-04T12:48:40.694Z,8.32
2023-12-04T12:51:09.031Z,8.20
2023-12-04T12:53:36.185Z,9.07
2023-12-04T12:56:05.601Z,9.57
2023-12-04T12:58:32.907Z,9.13
2023-12-04T13:01:01.464Z,8.80
2023-12-04T13:03:32.709Z,9.15
2023-12-04T13:06:00.087Z,9.40
2023-12-04T13:08:27.302Z,9.60
2023-12-04T13:10:54.478Z,8.73
2023-12-04T13:13:21.961Z,10.25
2023-12-04T13:15:49.812Z,8.80
2023-12-04T13:20:44.488Z,9.02
2023-12-04T13:25:38.516Z,9.10
2023-12-04T13:28:05.832Z,9.90
2023-12-04T13:30:35.449Z,10.30
2023-12-04T13:33:03.329Z,9.90
2023-12-04T13:35:30.491Z,10.18
2023-12-04T13:38:00.210Z,9.43
2023-12-04T13:40:29.535Z,9.25
2023-12-04T13:43:15.438Z,9.05
2023-12-04T13:45:42.628Z,9.30
2023-12-04T13:48:10.163Z,10.10
2023-12-04T13:50:38.378Z,10.90
2023-12-04T13:53:07.049Z,8.55
2023-12-04T13:56:09.590Z,9.32
2023-12-04T13:58:41.232Z,9.70
2023-12-04T14:01:23.626Z,9.02
2023-12-04T14:03:53.837Z,8.45
2023-12-04T14:06:21.938Z,9.05
2023-12-04T14:11:16.394Z,8.00
2023-12-04T14:13:43.518Z,8.88
2023-12-04T14:16:11.373Z,9.48
2023-12-04T14:18:38.530Z,9.15
2023-12-04T14:21:05.978Z,9.60
2023-12-04T14:23:33.097Z,9.85
2023-12-04T14:26:00.289Z,10.02
2023-12-04T14:28:29.602Z,10.90
2023-12-04T14:31:03.033Z,9.45
2023-12-04T14:33:30.188Z,10.70
2023-12-04T14:35:57.302Z,9.43
2023-12-04T14:38:25.330Z,9.98
2023-12-04T14:40:53.262Z,10.02
2023-12-04T14:43:20.549Z,10.13
2023-12-04T14:45:47.728Z,9.43
2023-12-04T14:48:15.145Z,10.80
2023-12-04T14:50:42.300Z,9.52
2023-12-04T14:53:17.221Z,10.10
2023-12-04T14:56:03.338Z,11.07
2023-12-04T14:58:45.926Z,10.93
2023-12-04T15:01:32.658Z,10.60
2023-12-04T15:04:08.630Z,10.18
2023-12-04T15:06:54.277Z,10.13
2023-12-04T15:09:27.514Z,10.82
2023-12-04T15:12:06.750Z,9.40
2023-12-04T15:14:43.945Z,11.63
2023-12-04T15:17:20.081Z,12.93
2023-12-04T15:19:59.129Z,10.82
2023-12-04T15:22:26.604Z,12.38
2023-12-04T15:24:53.693Z,11.20
2023-12-04T15:27:21.364Z,12.07
2023-12-04T15:29:48.506Z,10.45
2023-12-04T15:32:15.570Z,9.55
2023-12-04T15:34:42.703Z,10.82
2023-12-04T15:37:09.813Z,12.57
2023-12-04T15:39:36.916Z,10.80
2023-12-04T15:42:06.979Z,9.95
2023-12-04T15:44:34.533Z,11.23
2023-12-04T15:47:02.130Z,12.05
2023-12-04T15:51:56.596Z,10.98
2023-12-04T15:54:23.678Z,11.02
2023-12-04T15:56:50.881Z,9.10
2023-12-04T15:59:17.941Z,9.93
2023-12-04T16:01:45.272Z,9.70
2023-12-04T16:04:13.194Z,9.98
2023-12-04T16:06:40.484Z,10.23
2023-12-04T16:09:08.787Z,9.95
2023-12-04T16:11:35.910Z,11.45
2023-12-04T16:14:03.017Z,11.90
2023-12-04T16:16:30.129Z,12.10
2023-12-04T16:18:57.229Z,9.52
2023-12-04T16:21:24.543Z,9.50
2023-12-04T16:23:57.603Z,8.63
2023-12-04T16:26:25.194Z,10.23
2023-12-04T16:28:52.256Z,11.02
2023-12-04T16:31:20.621Z,10.10
2023-12-04T16:33:48.731Z,10.18
2023-12-04T16:36:16.463Z,10.00
2023-12-04T16:38:44.205Z,9.75
2023-12-04T16:41:15.058Z,11.10
2023-12-04T16:43:45.786Z,10.73
2023-12-04T16:46:13.419Z,10.27
2023-12-04T16:48:40.768Z,9.55
2023-12-04T16:51:08.230Z,10.77
2023-12-04T16:53:35.424Z,9.52
2023-12-04T16:56:04.308Z,9.88
2023-12-04T16:58:31.363Z,9.90
2023-12-04T17:00:59.728Z,10.07
2023-12-04T17:03:27.102Z,9.98
2023-12-04T17:05:54.268Z,11.38
2023-12-04T17:08:22.972Z,9.77
2023-12-04T17:10:50.220Z,9.63
2023-12-04T17:13:17.785Z,11.93
2023-12-04T17:15:45.231Z,10.88
2023-12-04T17:18:12.550Z,10.38
2023-12-04T17:20:40.010Z,9.93
2023-12-04T17:23:07.073Z,10.98
2023-12-04T17:25:36.584Z,10.80
2023-12-04T17:28:04.846Z,10.45
2023-12-04T17:30:33.322Z,10.85
2023-12-04T17:33:00.620Z,12.60
2023-12-04T17:35:27.721Z,10.98
2023-12-04T17:37:54.878Z,12.30
2023-12-04T17:40:23.082Z,12.52
2023-12-04T17:42:51.542Z,12.45
2023-12-04T17:45:18.746Z,10.98
2023-12-04T17:47:46.421Z,12.35
2023-12-04T17:55:10.569Z,10.18
2023-12-04T17:57:38.308Z,12.00
2023-12-04T18:02:38.074Z,11.50
2023-12-04T18:05:05.612Z,10.35
2023-12-04T18:07:33.358Z,12.43
2023-12-04T18:12:27.657Z,9.95
2023-12-04T18:14:54.733Z,11.98
2023-12-04T18:17:21.879Z,11.38
2023-12-04T18:19:52.108Z,11.70
2023-12-04T18:22:19.279Z,12.32
2023-12-04T18:24:46.486Z,13.18
2023-12-04T18:27:14.174Z,13.40
2023-12-04T18:32:10.423Z,11.75
2023-12-04T18:34:38.143Z,13.90
2023-12-04T18:39:36.320Z,12.40
2023-12-04T18:42:03.806Z,12.13
2023-12-04T18:44:31.404Z,14.02
2023-12-04T18:47:00.548Z,13.15
2023-12-04T18:49:29.049Z,12.90
2023-12-04T18:51:56.834Z,12.70
2023-12-04T18:56:50.841Z,13.57
2023-12-04T18:59:17.936Z,13.40
2023-12-04T19:01:45.011Z,13.18
2023-12-04T19:04:14.205Z,12.68
2023-12-04T19:06:41.723Z,13.98
2023-12-04T19:09:08.825Z,13.57
2023-12-04T19:11:35.923Z,13.05
2023-12-04T19:14:03.049Z,15.63
2023-12-04T19:16:30.440Z,14.02
2023-12-04T19:18:57.698Z,13.07
2023-12-04T19:21:25.035Z,14.07
2023-12-04T19:23:52.350Z,13.57
2023-12-04T19:26:19.571Z,13.40
2023-12-04T19:28:46.664Z,14.48
2023-12-04T19:31:13.821Z,15.18
2023-12-04T19:33:41.056Z,13.48
2023-12-04T19:36:08.901Z,14.88
2023-12-04T19:38:37.439Z,14.30
2023-12-04T19:41:05.460Z,13.73
2023-12-04T19:43:32.799Z,14.07
2023-12-04T19:46:03.420Z,15.23
2023-12-04T19:48:30.607Z,13.88
2023-12-04T19:50:57.824Z,13.88
2023-12-04T19:53:25.039Z,14.40
2023-12-04T19:55:52.190Z,14.48
2023-12-04T19:58:19.550Z,14.30
2023-12-04T20:00:46.704Z,15.90
2023-12-04T20:03:13.951Z,14.55
2023-12-04T20:05:41.199Z,14.70
2023-12-04T20:08:10.567Z,15.25
2023-12-04T20:10:39.533Z,14.77
2023-12-04T20:13:07.971Z,14.50
2023-12-04T20:15:35.109Z,12.90
2023-12-04T20:18:02.436Z,12.63
2023-12-04T20:20:29.596Z,13.93
2023-12-04T20:22:56.799Z,13.38
2023-12-04T20:25:27.279Z,15.10
2023-12-04T20:27:54.640Z,13.70
2023-12-04T20:30:22.047Z,14.57
2023-12-04T20:32:49.334Z,13.07
2023-12-04T20:35:16.453Z,14.65
2023-12-04T20:37:43.580Z,14.65
2023-12-04T20:40:11.700Z,15.13
2023-12-04T20:42:39.224Z,15.65
2023-12-04T20:45:07.009Z,13.25
2023-12-04T20:50:01.348Z,12.48
2023-12-04T20:52:28.512Z,13.43
2023-12-04T20:54:57.296Z,13.55
2023-12-04T20:57:24.991Z,15.27
2023-12-04T20:59:52.156Z,14.27
2023-12-04T21:02:19.266Z,13.40
2023-12-04T21:04:46.611Z,14.13
2023-12-04T21:07:15.783Z,15.48
2023-12-04T21:09:43.558Z,13.85
2023-12-04T21:14:37.742Z,11.40
2023-12-04T21:17:06.296Z,13.02
2023-12-04T21:19:33.607Z,12.65
2023-12-04T21:22:00.713Z,15.75
2023-12-04T21:24:27.890Z,14.05
2023-12-04T21:26:55.149Z,13.55
2023-12-04T21:29:22.219Z,13.68
2023-12-04T21:31:50.736Z,13.73
2023-12-04T21:34:19.049Z,11.65
2023-12-04T21:36:46.334Z,11.30
2023-12-04T21:39:14.129Z,13.00
2023-12-04T21:41:41.269Z,11.40
2023-12-04T21:44:08.403Z,14.52
2023-12-04T21:46:36.119Z,14.27
2023-12-04T21:51:31.541Z,12.18
2023-12-04T21:53:58.804Z,12.68
2023-12-04T21:56:26.121Z,12.07
2023-12-04T21:58:53.206Z,13.20
2023-12-04T22:01:20.297Z,13.75
2023-12-04T22:03:47.599Z,12.82
2023-12-04T22:06:14.871Z,13.80
2023-12-04T22:08:42.004Z,14.10
2023-12-04T22:11:09.130Z,12.52
2023-12-04T22:13:36.210Z,14.82
2023-12-04T22:16:03.481Z,12.43
2023-12-04T22:18:33.385Z,13.88
2023-12-04T22:21:00.632Z,13.27
2023-12-04T22:23:27.735Z,14.48
2023-12-04T22:25:54.872Z,12.90
2023-12-04T22:28:22.041Z,13.48
2023-12-04T22:30:49.227Z,13.60
2023-12-04T22:33:16.510Z,14.70
2023-12-04T22:35:43.715Z,13.45
2023-12-04T22:38:10.786Z,14.23
2023-12-04T22:40:38.631Z,12.88
2023-12-04T22:43:05.791Z,14.77
2023-12-04T22:45:33.165Z,14.02
2023-12-04T22:48:00.461Z,13.77
2023-12-04T22:50:27.758Z,14.75
2023-12-04T22:53:02.272Z,14.07
2023-12-04T22:55:33.173Z,14.98
2023-12-04T22:58:00.257Z,13.27
2023-12-04T23:00:27.514Z,13.88
2023-12-04T23:02:55.753Z,14.18
2023-12-04T23:05:22.926Z,12.95
2023-12-04T23:07:50.153Z,13.32
2023-12-04T23:10:18.209Z,13.32
2023-12-04T23:12:45.442Z,13.55
2023-12-04T23:15:12.622Z,12.57
2023-12-04T23:17:39.868Z,14.35
2023-12-04T23:20:08.449Z,13.07
2023-12-04T23:22:35.620Z,13.20
2023-12-04T23:25:02.790Z,13.02
2023-12-04T23:27:37.099Z,13.60
2023-12-04T23:30:06.521Z,13.60
2023-12-04T23:32:34.549Z,13.88
2023-12-04T23:35:02.018Z,12.35
2023-12-04T23:37:29.113Z,15.32
2023-12-04T23:39:56.309Z,13.45
2023-12-04T23:42:23.433Z,12.35
2023-12-04T23:44:50.509Z,14.27
2023-12-04T23:47:17.599Z,12.90
2023-12-04T23:49:45.020Z,15.32
2023-12-04T23:52:12.121Z,14.10
2023-12-04T23:54:39.433Z,14.32
2023-12-04T23:57:06.521Z,14.38
2023-12-04T23:59:33.834Z,14.18
